Time;durP1;ratioP1;P1;durP2;ratioP2;P2;SDS_P1;SDS_P2;PMS_P1;PMS_P2;Temp;Humidity;BMP_temperature;BMP_pressure;BME280_temperature;BME280_humidity;BME280_pressure;Samples;Min_cycle;Max_cycle;Signal;HPM_P1;HPM_P2
2022/09/23 00:00:24;;;;;;;11.68;9.23;;;;;;;;;;5038698;28;20075;-69
2022/09/23 00:02:50;;;;;;;11.50;9.40;;;;;;;;;;5034272;28;20060;-69
2022/09/23 00:05:17;;;;;;;12.60;9.38;;;;;;;;;;5040042;28;20048;-69
2022/09/23 00:07:43;;;;;;;12.90;9.32;;;;;;;;;;5034903;28;20053;-69
2022/09/23 00:10:09;;;;;;;13.73;9.40;;;;;;;;;;5037601;28;20045;-69
2022/09/23 00:12:35;;;;;;;14.27;9.25;;;;;;;;;;5034381;28;20041;-69
2022/09/23 00:15:02;;;;;;;12.40;9.90;;;;;;;;;;5038564;28;20132;-70
2022/09/23 00:17:28;;;;;;;11.77;10.00;;;;;;;;;;5042578;28;20048;-69
2022/09/23 00:19:54;;;;;;;13.80;10.07;;;;;;;;;;5046167;28;20049;-70
2022/09/23 00:22:20;;;;;;;14.95;10.32;;;;;;;;;;5041759;28;20402;-69
2022/09/23 00:24:46;;;;;;;15.88;10.07;;;;;;;;;;5048947;28;20045;-69
2022/09/23 00:27:13;;;;;;;14.35;9.95;;;;;;;;;;5041264;28;20072;-69
2022/09/23 00:29:39;;;;;;;15.40;11.25;;;;;;;;;;5038880;28;20289;-69
2022/09/23 00:32:05;;;;;;;14.80;11.05;;;;;;;;;;5036270;28;20153;-69
2022/09/23 00:34:31;;;;;;;14.82;10.82;;;;;;;;;;5041519;28;20124;-69
2022/09/23 00:36:57;;;;;;;14.68;10.85;;;;;;;;;;5035072;28;20669;-69
2022/09/23 00:39:24;;;;;;;17.65;11.43;;;;;;;;;;5048022;28;20041;-69
2022/09/23 00:41:51;;;;;;;15.25;11.93;;;;;;;;;;5040900;28;20109;-69
2022/09/23 00:44:36;;;;;;;12.60;11.23;;;;;;;;;;5040442;28;20073;-69
2022/09/23 00:47:02;;;;;;;14.45;11.70;;;;;;;;;;5040079;28;20076;-70
2022/09/23 00:49:29;;;;;;;17.73;12.77;;;;;;;;;;5041891;28;20434;-69
2022/09/23 00:52:00;;;;;;;16.40;12.48;;;;;;;;;;5045644;28;20044;-69
2022/09/23 00:54:27;;;;;;;17.23;12.00;;;;;;;;;;5051979;28;20102;-69
2022/09/23 00:56:53;;;;;;;17.88;12.93;;;;;;;;;;5043135;28;20053;-69
2022/09/23 00:59:20;;;;;;;17.90;11.40;;;;;;;;;;5045048;28;20102;-70
2022/09/23 01:01:48;;;;;;;15.93;12.70;;;;;;;;;;5040919;28;20058;-69
2022/09/23 01:04:15;;;;;;;16.55;12.23;;;;;;;;;;5044888;28;20396;-69
2022/09/23 01:06:41;;;;;;;15.02;12.02;;;;;;;;;;5041325;28;20041;-69
2022/09/23 01:09:07;;;;;;;18.40;12.23;;;;;;;;;;5030755;28;20038;-69
2022/09/23 01:11:42;;;;;;;16.77;12.98;;;;;;;;;;5040424;28;20041;-69
2022/09/23 01:14:15;;;;;;;16.33;12.60;;;;;;;;;;5041020;28;20047;-69
2022/09/23 01:16:49;;;;;;;14.18;12.48;;;;;;;;;;5041056;28;20060;-69
2022/09/23 01:19:30;;;;;;;15.80;13.20;;;;;;;;;;5040386;28;20363;-69
2022/09/23 01:22:10;;;;;;;19.42;13.15;;;;;;;;;;5043593;28;20064;-70
2022/09/23 01:24:45;;;;;;;16.38;13.07;;;;;;;;;;5038173;28;21092;-69
2022/09/23 01:27:14;;;;;;;16.75;13.48;;;;;;;;;;5048708;28;20071;-69
2022/09/23 01:29:50;;;;;;;19.73;14.10;;;;;;;;;;5049498;28;20041;-69
2022/09/23 01:32:24;;;;;;;16.67;13.55;;;;;;;;;;5048148;28;20393;-69
2022/09/23 01:34:51;;;;;;;15.93;12.02;;;;;;;;;;5042549;28;20419;-69
2022/09/23 01:37:23;;;;;;;20.80;14.05;;;;;;;;;;5042384;28;21592;-69
2022/09/23 01:39:59;;;;;;;16.30;13.45;;;;;;;;;;5036248;28;20123;-69
2022/09/23 01:42:29;;;;;;;20.25;14.63;;;;;;;;;;5045733;28;20088;-69
2022/09/23 01:44:58;;;;;;;19.73;14.43;;;;;;;;;;5046273;28;20055;-69
2022/09/23 01:47:29;;;;;;;15.93;12.63;;;;;;;;;;5038958;28;20246;-70
2022/09/23 01:50:55;;;;;;;16.60;13.90;;;;;;;;;;5047572;28;20740;-69
2022/09/23 01:52:54;;;;;;;19.15;13.93;;;;;;;;;;5033366;28;20044;-68
2022/09/23 01:55:25;;;;;;;18.00;13.63;;;;;;;;;;5042726;28;20052;-69
2022/09/23 01:57:54;;;;;;;19.98;15.05;;;;;;;;;;5037751;28;20466;-70
2022/09/23 02:00:22;;;;;;;19.60;15.25;;;;;;;;;;5020055;28;20124;-69
2022/09/23 02:02:49;;;;;;;19.77;14.70;;;;;;;;;;5035205;28;20053;-69
2022/09/23 02:05:24;;;;;;;18.98;14.68;;;;;;;;;;5042764;28;20036;-69
2022/09/23 02:07:53;;;;;;;19.42;13.68;;;;;;;;;;5034324;28;20041;-69
2022/09/23 02:10:23;;;;;;;18.80;14.55;;;;;;;;;;5038693;28;20049;-69
2022/09/23 02:12:52;;;;;;;20.33;14.93;;;;;;;;;;5045315;28;20052;-69
2022/09/23 02:15:22;;;;;;;20.80;15.57;;;;;;;;;;5044824;28;20040;-69
2022/09/23 02:17:51;;;;;;;20.58;15.52;;;;;;;;;;5047122;28;20487;-70
2022/09/23 02:20:20;;;;;;;20.70;15.77;;;;;;;;;;5042905;28;20055;-69
2022/09/23 02:22:56;;;;;;;21.40;16.48;;;;;;;;;;5045735;28;20075;-69
2022/09/23 02:25:25;;;;;;;23.25;16.02;;;;;;;;;;5044627;28;20125;-69
2022/09/23 02:27:55;;;;;;;24.02;17.65;;;;;;;;;;5046135;28;20044;-69
2022/09/23 02:30:27;;;;;;;23.20;17.27;;;;;;;;;;5074561;28;20053;-69
2022/09/23 02:32:58;;;;;;;20.98;16.85;;;;;;;;;;5049511;28;20168;-69
2022/09/23 02:35:31;;;;;;;23.63;17.48;;;;;;;;;;5049891;28;20048;-69
2022/09/23 02:38:15;;;;;;;22.60;16.33;;;;;;;;;;5050599;28;20052;-69
2022/09/23 02:40:52;;;;;;;21.52;16.65;;;;;;;;;;5063738;28;20040;-68
2022/09/23 02:43:31;;;;;;;23.13;17.00;;;;;;;;;;5044580;28;20056;-69
2022/09/23 02:45:57;;;;;;;29.35;17.48;;;;;;;;;;5041384;28;20079;-69
2022/09/23 02:48:28;;;;;;;20.52;17.13;;;;;;;;;;5042363;28;20508;-69
2022/09/23 02:50:55;;;;;;;21.40;17.25;;;;;;;;;;5037366;28;20066;-69
2022/09/23 02:53:22;;;;;;;24.02;16.83;;;;;;;;;;5052947;28;20045;-69
2022/09/23 02:55:49;;;;;;;26.08;19.02;;;;;;;;;;5039718;28;20053;-69
2022/09/23 02:58:16;;;;;;;23.45;17.98;;;;;;;;;;5044346;28;20189;-69
2022/09/23 03:00:45;;;;;;;22.85;18.35;;;;;;;;;;5040728;28;20073;-69
2022/09/23 03:03:11;;;;;;;26.27;18.63;;;;;;;;;;5051469;28;20060;-69
2022/09/23 03:05:43;;;;;;;27.27;19.30;;;;;;;;;;5036726;28;20500;-69
2022/09/23 03:08:13;;;;;;;25.90;18.48;;;;;;;;;;5041652;28;20047;-69
2022/09/23 03:10:52;;;;;;;23.33;18.90;;;;;;;;;;5038881;28;20150;-69
2022/09/23 03:13:29;;;;;;;27.13;18.33;;;;;;;;;;5046815;28;20480;-69
2022/09/23 03:16:01;;;;;;;24.15;17.65;;;;;;;;;;5033170;28;20049;-69
2022/09/23 03:18:34;;;;;;;29.50;17.60;;;;;;;;;;5030594;28;20544;-70
2022/09/23 03:21:03;;;;;;;20.92;17.55;;;;;;;;;;5043440;28;20037;-69
2022/09/23 03:23:33;;;;;;;23.83;18.83;;;;;;;;;;5031994;28;20049;-69
2022/09/23 03:26:01;;;;;;;21.10;17.10;;;;;;;;;;5032429;28;20048;-69
2022/09/23 03:28:28;;;;;;;20.25;17.27;;;;;;;;;;5043858;28;20119;-69
2022/09/23 03:30:55;;;;;;;23.80;17.25;;;;;;;;;;5040121;28;20088;-69
2022/09/23 03:33:24;;;;;;;25.92;17.60;;;;;;;;;;5038070;28;20488;-69
2022/09/23 03:38:41;;;;;;;23.48;18.00;;;;;;;;;;5042253;28;21880;-69
2022/09/23 03:41:09;;;;;;;26.73;17.65;;;;;;;;;;5049763;28;20119;-69
2022/09/23 03:43:35;;;;;;;27.05;19.33;;;;;;;;;;5044067;28;20511;-69
2022/09/23 03:46:01;;;;;;;23.25;17.77;;;;;;;;;;5047767;28;20041;-69
2022/09/23 03:48:27;;;;;;;26.65;17.90;;;;;;;;;;5038372;28;20084;-69
2022/09/23 03:50:54;;;;;;;21.30;16.38;;;;;;;;;;5041227;28;20049;-69
2022/09/23 03:53:20;;;;;;;22.92;17.52;;;;;;;;;;5045286;28;20060;-69
2022/09/23 03:55:47;;;;;;;26.00;18.75;;;;;;;;;;5044622;28;20147;-69
2022/09/23 03:58:13;;;;;;;29.40;18.27;;;;;;;;;;5052185;28;20053;-69
2022/09/23 04:00:39;;;;;;;27.92;17.23;;;;;;;;;;5046617;28;20037;-69
2022/09/23 04:03:05;;;;;;;24.83;19.15;;;;;;;;;;5049882;28;20114;-69
2022/09/23 04:05:32;;;;;;;23.85;19.92;;;;;;;;;;5046866;28;20118;-69
2022/09/23 04:07:58;;;;;;;25.20;17.45;;;;;;;;;;5047960;28;20040;-69
2022/09/23 04:10:24;;;;;;;22.27;17.48;;;;;;;;;;5078334;28;20139;-68
2022/09/23 04:12:50;;;;;;;22.25;16.65;;;;;;;;;;5049029;28;20068;-69
2022/09/23 04:15:16;;;;;;;26.65;17.88;;;;;;;;;;5080506;28;20050;-69
2022/09/23 04:17:42;;;;;;;25.35;17.15;;;;;;;;;;5052865;28;20086;-69
2022/09/23 04:20:09;;;;;;;24.00;17.60;;;;;;;;;;5041923;28;20080;-68
2022/09/23 04:22:36;;;;;;;23.25;16.92;;;;;;;;;;5041277;28;20548;-69
2022/09/23 04:25:03;;;;;;;22.98;17.70;;;;;;;;;;5047788;28;20037;-69
2022/09/23 04:27:29;;;;;;;23.38;17.63;;;;;;;;;;5043135;28;20511;-69
2022/09/23 04:29:55;;;;;;;22.85;17.55;;;;;;;;;;5041401;28;20769;-69
2022/09/23 04:32:21;;;;;;;25.58;18.10;;;;;;;;;;5039664;28;20048;-68
2022/09/23 04:34:47;;;;;;;25.23;18.45;;;;;;;;;;5048056;28;20037;-69
2022/09/23 04:37:13;;;;;;;22.40;17.60;;;;;;;;;;5041023;28;20053;-69
2022/09/23 04:39:40;;;;;;;26.27;18.80;;;;;;;;;;5036169;28;20048;-69
2022/09/23 04:42:06;;;;;;;23.88;18.55;;;;;;;;;;5041975;28;20060;-69
2022/09/23 04:44:32;;;;;;;24.23;18.55;;;;;;;;;;5046755;28;20148;-69
2022/09/23 04:46:59;;;;;;;23.30;18.15;;;;;;;;;;5043673;28;20076;-69
2022/09/23 04:49:25;;;;;;;25.05;19.08;;;;;;;;;;5042111;28;20408;-69
2022/09/23 04:51:51;;;;;;;25.65;19.20;;;;;;;;;;5040985;28;20045;-69
2022/09/23 04:54:17;;;;;;;23.13;17.60;;;;;;;;;;5037765;28;20049;-70
2022/09/23 04:56:43;;;;;;;21.60;18.92;;;;;;;;;;5035501;28;20919;-68
2022/09/23 04:59:10;;;;;;;25.73;18.98;;;;;;;;;;5038739;28;20448;-69
2022/09/23 05:01:37;;;;;;;28.33;18.83;;;;;;;;;;5039302;28;20105;-69
2022/09/23 05:04:04;;;;;;;26.42;18.35;;;;;;;;;;5048317;28;20059;-69
2022/09/23 05:06:31;;;;;;;22.83;18.88;;;;;;;;;;5044989;28;20049;-69
2022/09/23 05:08:58;;;;;;;26.48;19.52;;;;;;;;;;5056814;28;20044;-69
2022/09/23 05:11:25;;;;;;;24.45;19.58;;;;;;;;;;5058784;28;20135;-69
2022/09/23 05:13:52;;;;;;;24.88;19.08;;;;;;;;;;5060472;28;20047;-68
2022/09/23 05:16:19;;;;;;;22.27;18.45;;;;;;;;;;5052366;28;20118;-68
2022/09/23 05:18:45;;;;;;;26.02;18.75;;;;;;;;;;5049141;28;20098;-68
2022/09/23 05:21:13;;;;;;;23.80;19.13;;;;;;;;;;5055354;28;20435;-68
2022/09/23 05:23:39;;;;;;;23.95;18.00;;;;;;;;;;5046043;28;20067;-69
2022/09/23 05:26:07;;;;;;;23.17;19.33;;;;;;;;;;5042085;28;20483;-69
2022/09/23 05:28:34;;;;;;;25.10;19.65;;;;;;;;;;5045115;28;20102;-69
2022/09/23 05:31:03;;;;;;;25.00;18.08;;;;;;;;;;5055544;28;20065;-67
2022/09/23 05:33:30;;;;;;;22.85;18.45;;;;;;;;;;5049733;28;20110;-70
2022/09/23 05:35:56;;;;;;;23.88;19.27;;;;;;;;;;5050587;28;20099;-70
2022/09/23 05:38:22;;;;;;;24.30;19.92;;;;;;;;;;5044251;28;20394;-70
2022/09/23 05:40:56;;;;;;;22.98;18.58;;;;;;;;;;5049304;28;20514;-67
2022/09/23 05:43:23;;;;;;;32.22;19.30;;;;;;;;;;5056293;28;20040;-67
2022/09/23 05:45:49;;;;;;;24.67;19.00;;;;;;;;;;5050841;28;20505;-68
2022/09/23 05:48:15;;;;;;;23.48;18.35;;;;;;;;;;5052331;28;21010;-67
2022/09/23 05:50:51;;;;;;;22.60;18.73;;;;;;;;;;5061594;28;20041;-67
2022/09/23 05:53:18;;;;;;;23.45;18.55;;;;;;;;;;5057559;28;20047;-67
2022/09/23 05:55:44;;;;;;;22.05;18.58;;;;;;;;;;5047817;28;20095;-67
2022/09/23 05:58:11;;;;;;;26.67;18.88;;;;;;;;;;5045478;28;20194;-67
2022/09/23 06:00:40;;;;;;;22.95;19.13;;;;;;;;;;5050507;28;20548;-67
2022/09/23 06:03:09;;;;;;;23.40;18.42;;;;;;;;;;5044473;28;20168;-67
2022/09/23 06:05:36;;;;;;;23.77;19.70;;;;;;;;;;5049673;28;20041;-67
2022/09/23 06:08:02;;;;;;;24.27;20.20;;;;;;;;;;5046131;28;20037;-69
2022/09/23 06:10:28;;;;;;;26.85;20.58;;;;;;;;;;5049111;28;20512;-68
2022/09/23 06:12:54;;;;;;;23.13;19.23;;;;;;;;;;5048705;28;20492;-67
2022/09/23 06:15:20;;;;;;;25.70;20.38;;;;;;;;;;5046834;28;20457;-67
2022/09/23 06:17:49;;;;;;;26.90;19.95;;;;;;;;;;5048044;28;20190;-67
2022/09/23 06:20:15;;;;;;;27.40;20.02;;;;;;;;;;5044920;28;20041;-67
2022/09/23 06:22:41;;;;;;;28.00;20.35;;;;;;;;;;5049286;28;20484;-67
2022/09/23 06:25:08;;;;;;;28.80;22.10;;;;;;;;;;5045434;28;20613;-67
2022/09/23 06:27:34;;;;;;;29.00;21.50;;;;;;;;;;5055562;28;20041;-68
2022/09/23 06:30:00;;;;;;;26.52;20.60;;;;;;;;;;5044105;28;20040;-68
2022/09/23 06:32:26;;;;;;;25.80;20.95;;;;;;;;;;5049991;28;20068;-69
2022/09/23 06:34:52;;;;;;;25.90;21.00;;;;;;;;;;5063017;28;20060;-69
2022/09/23 06:37:18;;;;;;;23.05;20.60;;;;;;;;;;5060718;28;20083;-69
2022/09/23 06:39:45;;;;;;;24.33;20.58;;;;;;;;;;5065479;28;20043;-69
2022/09/23 06:42:11;;;;;;;27.08;20.52;;;;;;;;;;5060576;28;20053;-69
2022/09/23 06:44:37;;;;;;;22.60;20.08;;;;;;;;;;5059052;28;20051;-69
2022/09/23 06:47:03;;;;;;;24.00;20.38;;;;;;;;;;5057944;28;20128;-69
2022/09/23 06:49:30;;;;;;;25.13;21.25;;;;;;;;;;5055675;28;20036;-69
2022/09/23 06:52:06;;;;;;;23.45;20.58;;;;;;;;;;5092847;27;20118;-59
2022/09/23 06:54:32;;;;;;;25.17;21.05;;;;;;;;;;5060891;28;20049;-59
2022/09/23 06:56:58;;;;;;;23.23;19.67;;;;;;;;;;5080193;28;20036;-59
2022/09/23 06:59:24;;;;;;;27.75;21.00;;;;;;;;;;5058768;28;20048;-59
2022/09/23 07:01:50;;;;;;;22.92;18.88;;;;;;;;;;5059905;28;20040;-59
2022/09/23 07:04:16;;;;;;;22.33;18.50;;;;;;;;;;5074968;28;20047;-59
2022/09/23 07:06:43;;;;;;;26.15;20.27;;;;;;;;;;5080076;28;20032;-59
2022/09/23 07:09:09;;;;;;;23.65;18.67;;;;;;;;;;5078395;28;20098;-59
2022/09/23 07:11:36;;;;;;;23.92;18.17;;;;;;;;;;5078895;28;20044;-59
2022/09/23 07:14:02;;;;;;;24.50;18.88;;;;;;;;;;5078181;28;20051;-59
2022/09/23 07:16:29;;;;;;;20.40;17.45;;;;;;;;;;5080132;28;20126;-59
2022/09/23 07:18:55;;;;;;;20.98;17.58;;;;;;;;;;5072752;28;20102;-59
2022/09/23 07:21:21;;;;;;;21.90;17.08;;;;;;;;;;5079243;28;20068;-59
2022/09/23 07:23:49;;;;;;;26.75;19.80;;;;;;;;;;5080804;28;20124;-59
2022/09/23 07:26:15;;;;;;;24.55;19.50;;;;;;;;;;5078995;28;20052;-59
2022/09/23 07:28:42;;;;;;;21.40;18.45;;;;;;;;;;5080048;28;20201;-59
2022/09/23 07:31:10;;;;;;;25.13;18.83;;;;;;;;;;5074687;28;20190;-59
2022/09/23 07:33:37;;;;;;;23.98;18.67;;;;;;;;;;5077705;28;20497;-59
2022/09/23 07:36:04;;;;;;;24.90;18.63;;;;;;;;;;5078808;28;20501;-59
2022/09/23 07:38:30;;;;;;;28.65;18.92;;;;;;;;;;5070962;28;20051;-59
2022/09/23 07:41:01;;;;;;;25.25;18.38;;;;;;;;;;5079569;28;20040;-59
2022/09/23 07:43:28;;;;;;;20.80;18.27;;;;;;;;;;5060345;28;20483;-59
2022/09/23 07:45:54;;;;;;;24.63;18.23;;;;;;;;;;5080559;28;20056;-59
2022/09/23 07:48:21;;;;;;;21.27;18.58;;;;;;;;;;5077858;28;20041;-59
2022/09/23 07:50:47;;;;;;;22.25;17.63;;;;;;;;;;5076546;28;20456;-59
2022/09/23 07:53:14;;;;;;;21.92;17.13;;;;;;;;;;5076500;28;20044;-59
2022/09/23 07:55:41;;;;;;;21.83;18.15;;;;;;;;;;5078773;28;20128;-59
2022/09/23 07:58:07;;;;;;;20.98;17.15;;;;;;;;;;5076848;28;20379;-59
2022/09/23 08:00:35;;;;;;;23.40;18.08;;;;;;;;;;5058398;28;20059;-59
2022/09/23 08:03:01;;;;;;;26.00;17.83;;;;;;;;;;5067629;28;20547;-59
2022/09/23 08:05:27;;;;;;;22.63;17.52;;;;;;;;;;5065279;28;20049;-59
2022/09/23 08:07:53;;;;;;;19.55;16.52;;;;;;;;;;5044084;28;20056;-59
2022/09/23 08:10:20;;;;;;;21.65;16.27;;;;;;;;;;5063837;28;20040;-60
2022/09/23 08:12:47;;;;;;;22.40;17.17;;;;;;;;;;5050923;28;20450;-61
2022/09/23 08:15:15;;;;;;;18.83;16.60;;;;;;;;;;5060730;28;20040;-60
2022/09/23 08:17:41;;;;;;;20.75;16.40;;;;;;;;;;5058756;28;20055;-60
2022/09/23 08:20:42;;;;;;;19.88;15.93;;;;;;;;;;5064211;28;20052;-60
2022/09/23 08:22:53;;;;;;;21.95;16.05;;;;;;;;;;5066070;28;20129;-61
2022/09/23 08:25:20;;;;;;;18.25;16.02;;;;;;;;;;5056906;28;20127;-60
2022/09/23 08:27:46;;;;;;;19.17;15.63;;;;;;;;;;5067748;28;20068;-60
2022/09/23 08:30:12;;;;;;;18.52;14.70;;;;;;;;;;5063699;28;20047;-61
2022/09/23 08:32:38;;;;;;;18.35;15.85;;;;;;;;;;5063772;28;20032;-61
2022/09/23 08:35:05;;;;;;;20.75;16.10;;;;;;;;;;5063848;28;20041;-60
2022/09/23 08:37:31;;;;;;;20.00;17.10;;;;;;;;;;5061590;28;20037;-60
2022/09/23 08:39:57;;;;;;;24.17;16.55;;;;;;;;;;5064479;28;20052;-61
2022/09/23 08:42:28;;;;;;;18.42;15.98;;;;;;;;;;5060798;28;20079;-60
2022/09/23 08:44:56;;;;;;;19.15;15.98;;;;;;;;;;5063251;28;20049;-61
2022/09/23 08:47:22;;;;;;;18.23;14.48;;;;;;;;;;5043658;28;20048;-60
2022/09/23 08:50:07;;;;;;;18.10;14.85;;;;;;;;;;5067199;28;20040;-61
2022/09/23 08:52:35;;;;;;;17.27;14.13;;;;;;;;;;5056577;28;21482;-61
2022/09/23 08:55:02;;;;;;;17.48;14.32;;;;;;;;;;5058663;28;20041;-61
2022/09/23 08:57:34;;;;;;;19.80;15.70;;;;;;;;;;5056557;28;20084;-60
2022/09/23 09:00:01;;;;;;;18.63;15.07;;;;;;;;;;5057952;28;20044;-60
2022/09/23 09:02:28;;;;;;;20.38;17.27;;;;;;;;;;5063073;28;20178;-61
2022/09/23 09:04:57;;;;;;;20.83;15.77;;;;;;;;;;5063496;28;20033;-61
2022/09/23 09:07:28;;;;;;;19.15;16.25;;;;;;;;;;5058805;28;20032;-61
2022/09/23 09:10:05;;;;;;;21.02;16.92;;;;;;;;;;5053729;28;20045;-61
2022/09/23 09:12:39;;;;;;;20.73;17.20;;;;;;;;;;5045761;28;20128;-61
2022/09/23 09:15:11;;;;;;;20.15;15.25;;;;;;;;;;5053003;28;20139;-61
2022/09/23 09:17:39;;;;;;;22.27;17.50;;;;;;;;;;5046208;28;20200;-61
2022/09/23 09:20:17;;;;;;;18.42;15.35;;;;;;;;;;5056599;28;20105;-61
2022/09/23 09:22:56;;;;;;;19.40;15.77;;;;;;;;;;5040686;28;20064;-60
2022/09/23 09:25:42;;;;;;;20.58;16.90;;;;;;;;;;5040092;28;20449;-61
2022/09/23 09:28:15;;;;;;;23.83;16.67;;;;;;;;;;5061887;28;20040;-60
2022/09/23 09:30:43;;;;;;;21.60;16.52;;;;;;;;;;5063234;28;20067;-61
2022/09/23 09:33:14;;;;;;;24.30;17.17;;;;;;;;;;5047631;28;20040;-59
2022/09/23 09:35:41;;;;;;;22.08;16.60;;;;;;;;;;5049557;28;20077;-59
2022/09/23 09:38:07;;;;;;;20.20;17.00;;;;;;;;;;5051549;28;20041;-59
2022/09/23 09:40:34;;;;;;;21.15;16.33;;;;;;;;;;5032993;28;20049;-59
2022/09/23 09:43:07;;;;;;;17.60;15.60;;;;;;;;;;5051756;28;20045;-59
2022/09/23 09:45:53;;;;;;;21.45;16.27;;;;;;;;;;5048060;28;20049;-59
2022/09/23 09:48:26;;;;;;;21.77;15.90;;;;;;;;;;5048205;28;20045;-59
2022/09/23 09:50:54;;;;;;;21.85;16.63;;;;;;;;;;5045594;28;20130;-60
2022/09/23 09:53:23;;;;;;;19.17;16.42;;;;;;;;;;5047184;28;20036;-59
2022/09/23 09:56:00;;;;;;;20.85;15.18;;;;;;;;;;5046141;28;20054;-59
2022/09/23 09:58:34;;;;;;;20.75;15.55;;;;;;;;;;5032724;28;20053;-59
2022/09/23 10:01:00;;;;;;;18.55;15.52;;;;;;;;;;5044248;28;20360;-59
2022/09/23 10:03:33;;;;;;;26.17;16.80;;;;;;;;;;5045797;28;20461;-59
2022/09/23 10:05:59;;;;;;;20.43;17.63;;;;;;;;;;5041669;28;20120;-59
2022/09/23 10:08:31;;;;;;;19.90;15.95;;;;;;;;;;5027345;28;20315;-59
2022/09/23 10:10:58;;;;;;;18.70;15.40;;;;;;;;;;5046522;28;20437;-59
2022/09/23 10:13:29;;;;;;;20.10;15.18;;;;;;;;;;5047207;28;20041;-60
2022/09/23 10:15:56;;;;;;;22.33;17.35;;;;;;;;;;5049234;28;20045;-59
2022/09/23 10:18:31;;;;;;;20.05;17.05;;;;;;;;;;5049253;28;20408;-59
2022/09/23 10:21:06;;;;;;;19.75;16.23;;;;;;;;;;5053010;28;20496;-59
2022/09/23 10:23:32;;;;;;;19.30;16.55;;;;;;;;;;5041920;28;20042;-59
2022/09/23 10:26:01;;;;;;;19.00;16.55;;;;;;;;;;5032629;28;20098;-59
2022/09/23 10:28:37;;;;;;;22.58;16.70;;;;;;;;;;5048015;28;20059;-59
2022/09/23 10:31:05;;;;;;;21.85;16.10;;;;;;;;;;5031692;28;20049;-59
2022/09/23 10:33:31;;;;;;;18.45;15.55;;;;;;;;;;5046553;28;20076;-59
2022/09/23 10:35:57;;;;;;;19.35;15.70;;;;;;;;;;5040966;28;20055;-59
2022/09/23 10:38:24;;;;;;;22.95;16.92;;;;;;;;;;5042565;28;20057;-60
2022/09/23 10:46:37;;;;;;;19.83;15.98;;;;;;;;;;5042384;28;20415;-59
2022/09/23 10:47:01;;;;;;;21.70;16.13;;;;;;;;;;5028938;28;20469;-59
2022/09/23 10:49:29;;;;;;;19.83;16.98;;;;;;;;;;5051199;28;20045;-59
2022/09/23 10:52:08;;;;;;;23.33;17.50;;;;;;;;;;5058809;28;20068;-60
2022/09/23 10:54:43;;;;;;;19.10;16.10;;;;;;;;;;5054502;28;20036;-60
2022/09/23 10:57:38;;;;;;;24.83;18.42;;;;;;;;;;5045469;28;20040;-59
2022/09/23 11:00:11;;;;;;;21.50;17.92;;;;;;;;;;5050552;28;20068;-60
2022/09/23 11:02:38;;;;;;;23.98;17.60;;;;;;;;;;5050043;28;20041;-60
2022/09/23 11:05:14;;;;;;;24.15;18.40;;;;;;;;;;5045075;28;20057;-59
2022/09/23 11:07:46;;;;;;;23.85;17.33;;;;;;;;;;5045950;28;20087;-60
2022/09/23 11:10:39;;;;;;;25.27;18.55;;;;;;;;;;5048056;28;20045;-59
2022/09/23 11:13:15;;;;;;;25.70;17.50;;;;;;;;;;5042897;28;20053;-60
2022/09/23 11:15:42;;;;;;;23.98;17.75;;;;;;;;;;5043975;28;20079;-60
2022/09/23 11:18:19;;;;;;;24.20;19.02;;;;;;;;;;5040701;28;20056;-60
2022/09/23 11:20:53;;;;;;;21.90;17.85;;;;;;;;;;5041828;28;20065;-59
2022/09/23 11:23:26;;;;;;;25.42;18.23;;;;;;;;;;5044944;28;20033;-59
2022/09/23 11:26:05;;;;;;;23.00;19.40;;;;;;;;;;5044421;28;20045;-59
2022/09/23 11:28:37;;;;;;;21.05;18.65;;;;;;;;;;5042030;28;20059;-59
2022/09/23 11:31:11;;;;;;;24.50;18.92;;;;;;;;;;5043281;28;20079;-59
2022/09/23 11:33:44;;;;;;;24.30;19.73;;;;;;;;;;5043817;28;20044;-59
2022/09/23 11:36:17;;;;;;;27.13;20.25;;;;;;;;;;5041496;28;20060;-59
2022/09/23 11:38:45;;;;;;;24.02;19.05;;;;;;;;;;5041012;28;20151;-59
2022/09/23 11:41:16;;;;;;;24.83;20.17;;;;;;;;;;5045140;28;20040;-59
2022/09/23 11:43:44;;;;;;;26.10;21.20;;;;;;;;;;5045904;28;20049;-59
2022/09/23 11:46:13;;;;;;;25.88;20.65;;;;;;;;;;5044857;28;20048;-59
2022/09/23 11:48:43;;;;;;;24.80;21.08;;;;;;;;;;5038817;28;20049;-60
2022/09/23 11:51:14;;;;;;;28.13;21.92;;;;;;;;;;5041380;28;20091;-60
2022/09/23 11:53:44;;;;;;;25.67;22.95;;;;;;;;;;5046028;28;20048;-59
2022/09/23 11:56:16;;;;;;;29.73;23.83;;;;;;;;;;5044246;28;20509;-59
2022/09/23 11:58:46;;;;;;;28.75;24.75;;;;;;;;;;5040206;28;20076;-64
2022/09/23 12:01:19;;;;;;;29.02;23.90;;;;;;;;;;5055512;28;20044;-60
2022/09/23 12:03:50;;;;;;;30.65;24.55;;;;;;;;;;5056590;28;20496;-59
2022/09/23 12:06:20;;;;;;;33.92;24.58;;;;;;;;;;5059095;28;20109;-59
2022/09/23 12:08:49;;;;;;;30.65;27.33;;;;;;;;;;5048754;28;20476;-59
2022/09/23 12:11:16;;;;;;;32.50;26.27;;;;;;;;;;5050944;28;20040;-59
2022/09/23 12:13:49;;;;;;;34.03;26.98;;;;;;;;;;5027528;28;20110;-59
2022/09/23 12:16:26;;;;;;;37.17;27.63;;;;;;;;;;5049454;28;20080;-59
2022/09/23 12:19:04;;;;;;;34.15;27.73;;;;;;;;;;5045767;28;20048;-59
2022/09/23 12:21:41;;;;;;;35.17;29.25;;;;;;;;;;5045962;28;20059;-59
2022/09/23 12:24:15;;;;;;;34.05;29.92;;;;;;;;;;5045371;28;20099;-59
2022/09/23 12:26:41;;;;;;;;;;;;;;;;;;5050360;28;20076;-59
2022/09/23 12:29:11;;;;;;;31.50;27.23;;;;;;;;;;5051211;28;20454;-59
2022/09/23 12:31:38;;;;;;;37.10;29.08;;;;;;;;;;5050390;28;20127;-59
2022/09/23 12:34:18;;;;;;;36.13;28.05;;;;;;;;;;5049558;28;20515;-59
2022/09/23 12:36:44;;;;;;;33.90;29.23;;;;;;;;;;5047797;28;20135;-59
2022/09/23 12:39:16;;;;;;;35.88;28.60;;;;;;;;;;5051637;28;20178;-59
2022/09/23 12:41:45;;;;;;;33.03;29.23;;;;;;;;;;5047739;28;20155;-59
2022/09/23 12:44:17;;;;;;;36.35;30.65;;;;;;;;;;5048207;28;20072;-59
2022/09/23 12:46:44;;;;;;;36.47;28.98;;;;;;;;;;5031024;28;20110;-59
2022/09/23 12:49:24;;;;;;;37.58;29.77;;;;;;;;;;5029189;28;20041;-59
2022/09/23 12:52:09;;;;;;;35.25;27.55;;;;;;;;;;5051179;28;20057;-59
2022/09/23 12:54:35;;;;;;;33.92;29.23;;;;;;;;;;5050294;28;20048;-59
2022/09/23 12:57:02;;;;;;;35.47;28.55;;;;;;;;;;5050016;28;20492;-59
2022/09/23 12:59:30;;;;;;;33.33;28.05;;;;;;;;;;5054171;28;20062;-59
2022/09/23 13:01:56;;;;;;;35.88;28.75;;;;;;;;;;5052149;28;20120;-59
2022/09/23 13:07:14;;;;;;;39.63;28.75;;;;;;;;;;5051899;28;20147;-59
2022/09/23 13:09:42;;;;;;;32.58;28.27;;;;;;;;;;5053151;28;20048;-59
2022/09/23 13:12:16;;;;;;;37.28;30.40;;;;;;;;;;5049542;28;20361;-59
2022/09/23 13:14:44;;;;;;;43.05;31.52;;;;;;;;;;5053206;28;20036;-59
2022/09/23 13:17:22;;;;;;;42.45;33.47;;;;;;;;;;5053833;28;20075;-59
2022/09/23 13:19:57;;;;;;;42.30;33.92;;;;;;;;;;5056374;28;20041;-59
2022/09/23 13:23:01;;;;;;;43.63;37.42;;;;;;;;;;5055005;28;20047;-59
2022/09/23 13:25:30;;;;;;;44.50;35.15;;;;;;;;;;5057966;28;20056;-59
2022/09/23 13:27:58;;;;;;;47.92;36.50;;;;;;;;;;5053720;28;20041;-59
2022/09/23 13:30:25;;;;;;;46.97;35.90;;;;;;;;;;5055671;28;20056;-59
2022/09/23 13:33:08;;;;;;;46.60;39.03;;;;;;;;;;5055447;28;20178;-59
2022/09/23 13:35:36;;;;;;;49.03;38.17;;;;;;;;;;5053250;28;20033;-59
2022/09/23 13:38:10;;;;;;;48.15;39.25;;;;;;;;;;5050963;28;20164;-59
2022/09/23 13:40:36;;;;;;;45.80;38.33;;;;;;;;;;5048278;28;20412;-59
2022/09/23 13:43:04;;;;;;;52.15;39.05;;;;;;;;;;5049095;28;20086;-59
2022/09/23 13:45:32;;;;;;;48.30;37.72;;;;;;;;;;5046977;28;20041;-59
2022/09/23 13:48:01;;;;;;;46.60;37.80;;;;;;;;;;5047759;28;20040;-59
2022/09/23 13:50:28;;;;;;;49.58;38.80;;;;;;;;;;5028416;28;20073;-59
2022/09/23 13:52:56;;;;;;;50.35;38.58;;;;;;;;;;5045344;28;20388;-59
2022/09/23 13:55:26;;;;;;;51.08;41.20;;;;;;;;;;5045947;28;20127;-59
2022/09/23 13:58:03;;;;;;;53.50;41.25;;;;;;;;;;5045560;28;20056;-59
2022/09/23 14:00:36;;;;;;;57.38;41.90;;;;;;;;;;5044220;28;20044;-59
2022/09/23 14:03:05;;;;;;;53.17;40.10;;;;;;;;;;5045404;28;21286;-59
2022/09/23 14:05:34;;;;;;;51.55;41.53;;;;;;;;;;5053022;28;20040;-59
2022/09/23 14:08:00;;;;;;;48.95;40.72;;;;;;;;;;5052025;28;20127;-59
2022/09/23 14:10:27;;;;;;;48.55;40.15;;;;;;;;;;5052757;28;20516;-59
2022/09/23 14:12:54;;;;;;;50.70;39.25;;;;;;;;;;5048566;28;20105;-59
2022/09/23 14:15:21;;;;;;;49.28;40.78;;;;;;;;;;5048031;28;20127;-70
2022/09/23 14:17:48;;;;;;;56.08;45.50;;;;;;;;;;5031052;28;20048;-60
2022/09/23 14:20:16;;;;;;;51.15;41.45;;;;;;;;;;5031362;28;20590;-59
2022/09/23 14:22:42;;;;;;;59.00;42.63;;;;;;;;;;5052449;28;20059;-59
2022/09/23 14:25:13;;;;;;;47.63;39.42;;;;;;;;;;5048410;28;20041;-60
2022/09/23 14:27:40;;;;;;;46.60;38.28;;;;;;;;;;5046110;28;20086;-60
2022/09/23 14:30:06;;;;;;;42.80;38.17;;;;;;;;;;5051415;28;20061;-60
2022/09/23 14:32:33;;;;;;;49.53;38.67;;;;;;;;;;5041066;28;20044;-60
2022/09/23 14:34:59;;;;;;;45.85;38.80;;;;;;;;;;5049044;28;20032;-60
2022/09/23 14:40:25;;;;;;;52.78;40.25;;;;;;;;;;5052168;28;20040;-60
2022/09/23 14:42:57;;;;;;;45.40;36.47;;;;;;;;;;5049649;28;20056;-61